Terminal Aerodrome Forecast
Issued by NWS Louisville, KY

Home | Current Version | Previous Version | Text Only | Print | Product List | Glossary On
Versions: 1 2 3 4 5 6 7 8 9 10 11 12 13 14 15 16 17
000
FTUS43 KLMK 161917 AAA
TAFLEX
TAF AMD
KLEX 161917Z 1619/1718 29007KT P6SM BKN025
     FM162100 30007KT P6SM SCT028
     FM170300 28005KT P6SM BKN030
     FM171600 27006KT P6SM SKC=

USA.gov is the U.S. government's official web portal to all federal, state and local government web resources and services.